createdAt,value
2019-01-19T00:03:12.113Z,4.85
2019-01-19T00:09:07.093Z,8.54
2019-01-19T00:15:02.100Z,6.05
2019-01-19T00:20:57.081Z,4.01
2019-01-19T00:26:52.105Z,4.16
2019-01-19T00:32:47.099Z,4.98
2019-01-19T00:38:42.104Z,4.93
2019-01-19T00:44:37.124Z,4.87
2019-01-19T00:50:32.105Z,4.5
2019-01-19T00:56:27.120Z,3.84
2019-01-19T01:02:22.111Z,4.41
2019-01-19T01:08:17.117Z,4
2019-01-19T01:14:12.159Z,4.22
2019-01-19T01:20:07.128Z,3.73
2019-01-19T01:26:02.140Z,4.04
2019-01-19T01:31:57.123Z,3.3
2019-01-19T01:37:52.143Z,2.76
2019-01-19T01:43:47.182Z,2.97
2019-01-19T01:49:42.134Z,2.64
2019-01-19T01:55:37.138Z,2.42
2019-01-19T02:01:32.171Z,1.96
2019-01-19T02:07:27.207Z,1.22
2019-01-19T02:13:22.150Z,1.3
2019-01-19T02:19:17.160Z,0.96
2019-01-19T02:25:12.171Z,1.69
2019-01-19T02:31:07.159Z,1.5
2019-01-19T02:37:02.177Z,1.16
2019-01-19T02:42:57.193Z,1.54
2019-01-19T02:48:52.170Z,1.92
2019-01-19T02:54:47.171Z,0.82
2019-01-19T03:00:42.181Z,0.81
2019-01-19T03:06:37.247Z,0.61
2019-01-19T03:12:32.180Z,0.68
2019-01-19T03:18:27.194Z,1.23
2019-01-19T03:24:22.227Z,0.54
2019-01-19T03:30:17.199Z,0.37
2019-01-19T03:36:12.181Z,0.82
2019-01-19T03:42:07.254Z,0.3
2019-01-19T03:48:02.194Z,0.37
2019-01-19T03:53:57.236Z,0.4
2019-01-19T03:59:52.196Z,0.81
2019-01-19T04:05:47.216Z,1.1
2019-01-19T04:11:42.210Z,0.81
2019-01-19T04:17:37.216Z,0.27
2019-01-19T04:23:32.211Z,0.53
2019-01-19T04:29:27.204Z,0.53
2019-01-19T04:35:22.212Z,0.56
2019-01-19T04:41:17.226Z,0.61
2019-01-19T04:47:12.226Z,0.48
2019-01-19T04:53:07.240Z,0.47
2019-01-19T04:59:02.229Z,0.64
2019-01-19T05:04:57.247Z,0.34
2019-01-19T05:10:52.227Z,0.97
2019-01-19T05:16:47.239Z,1.01
2019-01-19T05:22:42.240Z,1.16
2019-01-19T05:28:37.319Z,0.53
2019-01-19T05:34:32.295Z,0.38
2019-01-19T05:40:27.261Z,0.52
2019-01-19T05:46:22.270Z,0.56
2019-01-19T05:52:17.278Z,0.44
2019-01-19T05:58:12.297Z,0.56
2019-01-19T06:04:07.265Z,0.65
2019-01-19T06:10:02.301Z,0.51
2019-01-19T06:15:57.274Z,0.36
2019-01-19T06:21:52.268Z,0.47
2019-01-19T06:27:47.275Z,0.83
2019-01-19T06:33:42.271Z,0.71
2019-01-19T06:39:37.298Z,0.52
2019-01-19T06:45:32.270Z,0.57
2019-01-19T06:51:27.290Z,0.88
2019-01-19T06:57:22.301Z,0.48
2019-01-19T07:03:17.308Z,0.52
2019-01-19T07:09:12.328Z,0.48
2019-01-19T07:15:07.297Z,0.37
2019-01-19T07:21:02.326Z,0.43
2019-01-19T07:26:57.335Z,0.46
2019-01-19T07:32:52.317Z,0.79
2019-01-19T07:38:47.345Z,0.42
2019-01-19T07:44:42.334Z,0.61
2019-01-19T07:50:37.330Z,0.48
2019-01-19T07:56:32.346Z,0.35
2019-01-19T08:02:27.324Z,0.62
2019-01-19T08:08:22.360Z,1.5
2019-01-19T08:14:17.385Z,1.09
2019-01-19T08:20:12.335Z,0.99
2019-01-19T08:26:07.350Z,1.1
2019-01-19T08:32:02.361Z,1.29
2019-01-19T08:37:57.340Z,1.17
2019-01-19T08:43:52.356Z,1.15
2019-01-19T08:49:47.346Z,0.56
2019-01-19T08:55:42.356Z,0.92
2019-01-19T09:01:37.379Z,0.8
2019-01-19T09:07:33.756Z,0.78
2019-01-19T09:13:27.374Z,0.92
2019-01-19T09:19:22.370Z,1.22
2019-01-19T09:25:17.374Z,0.84
2019-01-19T09:31:12.392Z,0.6
2019-01-19T09:37:07.366Z,0.71
2019-01-19T09:43:02.398Z,0.71
2019-01-19T09:48:57.370Z,2.17
2019-01-19T09:54:52.399Z,0.9
2019-01-19T10:00:47.375Z,0.85
2019-01-19T10:06:42.381Z,0.89
2019-01-19T10:12:37.485Z,0.77
2019-01-19T10:18:32.410Z,1.43
2019-01-19T10:24:27.394Z,1.2
2019-01-19T10:30:22.396Z,1.52
2019-01-19T10:36:17.456Z,1.35
2019-01-19T10:42:12.407Z,0.97
2019-01-19T10:48:07.435Z,1.12
2019-01-19T10:54:02.445Z,1.29
2019-01-19T10:59:57.402Z,1.08
2019-01-19T11:05:52.422Z,1.24
2019-01-19T11:11:47.450Z,0.99
2019-01-19T11:17:42.414Z,1.46
2019-01-19T11:23:39.799Z,1.4
2019-01-19T11:29:32.461Z,1.75
2019-01-19T11:35:27.430Z,2.01
2019-01-19T11:41:22.444Z,1.8
2019-01-19T11:47:17.449Z,2.49
2019-01-19T11:53:12.440Z,3.54
2019-01-19T11:59:07.474Z,1.5
2019-01-19T12:05:02.461Z,1.89
2019-01-19T12:10:57.442Z,1.17
2019-01-19T12:16:52.497Z,1.43
2019-01-19T12:22:47.474Z,1.94
2019-01-19T12:28:42.464Z,2.18
2019-01-19T12:34:37.471Z,2.11
2019-01-19T12:40:32.462Z,2.01
2019-01-19T12:46:27.488Z,2.17
2019-01-19T12:52:22.476Z,3.16
2019-01-19T12:58:17.589Z,3.79
2019-01-19T13:04:12.487Z,1.88
2019-01-19T13:10:07.494Z,2.32
2019-01-19T13:16:02.496Z,1.47
2019-01-19T13:21:57.556Z,1.8
2019-01-19T13:27:52.502Z,2.45
2019-01-19T13:33:47.487Z,2.66
2019-01-19T13:39:42.591Z,1.95
2019-01-19T13:45:37.529Z,1.46
2019-01-19T13:51:32.525Z,1.81
2019-01-19T13:57:27.530Z,2.03
2019-01-19T14:03:22.517Z,1.7
2019-01-19T14:09:17.508Z,1.94
2019-01-19T14:15:12.528Z,1.7
2019-01-19T14:21:07.570Z,1.39
2019-01-19T14:27:02.534Z,1.58
2019-01-19T14:32:57.532Z,1.6
2019-01-19T14:38:56.491Z,3.17
2019-01-19T14:44:47.532Z,5.67
2019-01-19T14:50:42.525Z,2.34
2019-01-19T14:56:37.537Z,1.36
2019-01-19T15:02:32.580Z,2.09
2019-01-19T15:08:27.575Z,2.4
2019-01-19T15:14:22.546Z,4.63
2019-01-19T15:20:17.568Z,4.36
2019-01-19T15:26:12.553Z,2.83
2019-01-19T15:32:07.552Z,5.38
2019-01-19T15:38:02.569Z,1.94
2019-01-19T15:43:57.564Z,2.31
2019-01-19T15:49:52.586Z,2.26
2019-01-19T15:55:47.562Z,3.07
2019-01-19T16:01:42.609Z,4.46
2019-01-19T16:07:37.573Z,2.32
2019-01-19T16:13:32.600Z,3.08
2019-01-19T16:19:27.616Z,1.98
2019-01-19T16:25:22.593Z,5.44
2019-01-19T16:31:17.607Z,4.2
2019-01-19T16:37:12.598Z,3.28
2019-01-19T16:43:07.605Z,1.57
2019-01-19T16:49:02.619Z,2.34
2019-01-19T16:54:57.618Z,1.41
2019-01-19T17:00:52.606Z,2.06
2019-01-19T17:06:47.691Z,2.55
2019-01-19T17:12:42.643Z,3.11
2019-01-19T17:18:37.618Z,2.83
2019-01-19T17:24:32.616Z,5.49
2019-01-19T17:30:27.673Z,9.05
2019-01-19T17:36:22.665Z,7.34
2019-01-19T17:42:17.624Z,12.4
2019-01-19T17:48:12.655Z,3.7
2019-01-19T17:54:07.643Z,11.32
2019-01-19T18:00:02.627Z,10.64
2019-01-19T18:05:57.660Z,10.66
2019-01-19T18:11:52.654Z,3.98
2019-01-19T18:17:47.666Z,9.27
2019-01-19T18:23:42.658Z,8.83
2019-01-19T18:29:37.656Z,10.79
2019-01-19T18:35:32.662Z,11.05
2019-01-19T18:41:27.658Z,16.95
2019-01-19T18:47:22.731Z,8.9
2019-01-19T18:53:17.669Z,4.6
2019-01-19T18:59:12.702Z,2.23
2019-01-19T19:05:07.657Z,2.59
2019-01-19T19:11:02.658Z,4.16
2019-01-19T19:16:57.690Z,5.27
2019-01-19T19:22:52.681Z,7.65
2019-01-19T19:28:47.740Z,16.02
2019-01-19T19:34:42.681Z,7.64
2019-01-19T19:40:37.746Z,12.15
2019-01-19T19:46:32.719Z,15.03
2019-01-19T19:52:27.846Z,16.95
2019-01-19T19:58:22.721Z,7.11
2019-01-19T20:04:17.702Z,7.68
2019-01-19T20:10:16.926Z,5.2
2019-01-19T20:16:07.712Z,7.02
2019-01-19T20:22:02.720Z,8.93
2019-01-19T20:27:57.752Z,11.64
2019-01-19T20:33:52.768Z,4.64
2019-01-19T20:39:47.798Z,7.92
2019-01-19T20:45:42.748Z,5.31
2019-01-19T20:51:37.721Z,6.78
2019-01-19T20:57:32.721Z,8.56
2019-01-19T21:03:27.741Z,6.28
2019-01-19T21:09:22.727Z,7.17
2019-01-19T21:15:17.744Z,10
2019-01-19T21:21:12.744Z,16.27
2019-01-19T21:27:07.756Z,9.49
2019-01-19T21:33:02.744Z,9.44
2019-01-19T21:38:57.752Z,9.94
2019-01-19T21:44:52.756Z,10.28
2019-01-19T21:50:47.740Z,9.94
2019-01-19T21:56:42.762Z,12.21
2019-01-19T22:02:37.796Z,15.69
2019-01-19T22:08:32.794Z,11.37
2019-01-19T22:14:27.785Z,14.64
2019-01-19T22:20:22.767Z,12.39
2019-01-19T22:26:17.811Z,11.61
2019-01-19T22:32:12.796Z,17.13
2019-01-19T22:38:07.795Z,18.94
2019-01-19T22:44:02.890Z,14.83
2019-01-19T22:49:57.820Z,13.34
2019-01-19T22:55:52.808Z,22.83
2019-01-19T23:01:47.844Z,17.55
2019-01-19T23:07:42.802Z,8.29
2019-01-19T23:13:37.803Z,9.48
2019-01-19T23:19:32.806Z,11.84
2019-01-19T23:25:27.853Z,9.6
2019-01-19T23:31:22.856Z,13.77
2019-01-19T23:37:17.817Z,11.92
2019-01-19T23:43:12.830Z,11.25
2019-01-19T23:49:07.867Z,10.49
2019-01-19T23:55:02.819Z,12.31
